createdAt,value
2023-03-22T00:00:03.057Z,47.40
2023-03-22T00:01:03.032Z,47.30
2023-03-22T00:02:03.023Z,47.60
2023-03-22T00:03:03.115Z,47.00
2023-03-22T00:04:03.024Z,47.50
2023-03-22T00:05:03.004Z,48.20
2023-03-22T00:06:02.991Z,48.30
2023-03-22T00:07:02.985Z,49.10
2023-03-22T00:08:02.975Z,47.40
2023-03-22T00:09:02.969Z,45.10
2023-03-22T00:10:02.976Z,45.80
2023-03-22T00:11:02.954Z,44.50
2023-03-22T00:12:02.943Z,43.50
2023-03-22T00:13:02.939Z,44.60
2023-03-22T00:14:02.957Z,44.30
2023-03-22T00:15:02.918Z,43.80
2023-03-22T00:16:03.039Z,44.20
2023-03-22T00:17:02.907Z,45.20
2023-03-22T00:18:02.894Z,45.10
2023-03-22T00:19:02.896Z,45.00
2023-03-22T00:20:02.881Z,44.90
2023-03-22T00:21:02.868Z,47.50
2023-03-22T00:22:02.857Z,45.90
2023-03-22T00:23:02.852Z,47.50
2023-03-22T00:24:02.845Z,45.50
2023-03-22T00:25:02.839Z,46.20
2023-03-22T00:26:02.838Z,47.70
2023-03-22T00:27:02.819Z,46.50
2023-03-22T00:28:02.814Z,46.70
2023-03-22T00:29:02.810Z,46.70
2023-03-22T00:30:02.799Z,47.00
2023-03-22T00:31:02.863Z,48.40
2023-03-22T00:32:02.811Z,47.50
2023-03-22T00:33:02.862Z,44.80
2023-03-22T00:34:02.765Z,44.90
2023-03-22T00:35:02.757Z,46.80
2023-03-22T00:36:02.755Z,45.50
2023-03-22T00:37:02.742Z,45.40
2023-03-22T00:38:02.741Z,46.90
2023-03-22T00:39:02.742Z,44.80
2023-03-22T00:40:02.720Z,46.60
2023-03-22T00:41:02.709Z,46.60
2023-03-22T00:42:02.706Z,47.00
2023-03-22T00:43:02.692Z,43.50
2023-03-22T00:44:02.685Z,44.10
2023-03-22T00:45:02.684Z,44.10
2023-03-22T00:46:02.734Z,44.30
2023-03-22T00:47:02.663Z,46.00
2023-03-22T00:48:02.673Z,45.10
2023-03-22T00:49:02.714Z,45.00
2023-03-22T00:50:02.636Z,44.40
2023-03-22T00:51:02.624Z,45.10
2023-03-22T00:52:02.621Z,46.60
2023-03-22T00:53:02.634Z,45.40
2023-03-22T00:54:02.605Z,45.70
2023-03-22T00:55:02.609Z,45.90
2023-03-22T00:56:02.591Z,46.50
2023-03-22T00:57:02.578Z,46.10
2023-03-22T00:58:02.587Z,45.40
2023-03-22T00:59:02.557Z,44.80
2023-03-22T01:00:02.554Z,45.60
2023-03-22T01:01:02.584Z,45.50
2023-03-22T01:02:02.537Z,44.20
2023-03-22T01:03:02.531Z,44.30
2023-03-22T01:04:02.520Z,44.40
2023-03-22T01:05:02.511Z,43.60
2023-03-22T01:06:02.504Z,43.90
2023-03-22T01:07:02.567Z,43.40
2023-03-22T01:08:02.483Z,45.00
2023-03-22T01:09:02.474Z,44.10
2023-03-22T01:10:02.465Z,43.30
2023-03-22T01:11:02.455Z,43.60
2023-03-22T01:12:02.448Z,43.80
2023-03-22T01:13:02.524Z,44.50
2023-03-22T01:14:02.436Z,43.20
2023-03-22T01:15:02.442Z,44.00
2023-03-22T01:16:02.477Z,44.70
2023-03-22T01:17:02.410Z,43.20
2023-03-22T01:18:02.408Z,43.00
2023-03-22T01:19:02.389Z,42.60
2023-03-22T01:20:02.387Z,43.30
2023-03-22T01:21:02.384Z,42.50
2023-03-22T01:22:02.364Z,41.60
2023-03-22T01:23:02.355Z,42.40
2023-03-22T01:24:02.359Z,43.40
2023-03-22T01:25:02.337Z,42.20
2023-03-22T01:26:02.332Z,41.90
2023-03-22T01:27:02.333Z,43.20
2023-03-22T01:28:02.330Z,44.10
2023-03-22T01:29:02.307Z,44.10
2023-03-22T01:30:02.294Z,44.60
2023-03-22T01:31:02.329Z,44.30
2023-03-22T01:32:02.285Z,45.30
2023-03-22T01:33:02.299Z,44.10
2023-03-22T01:34:02.265Z,44.30
2023-03-22T01:35:02.251Z,46.20
2023-03-22T01:36:02.286Z,46.60
2023-03-22T01:37:02.243Z,46.60
2023-03-22T01:38:02.241Z,48.00
2023-03-22T01:39:02.268Z,47.60
2023-03-22T01:40:02.213Z,48.80
2023-03-22T01:41:02.205Z,47.30
2023-03-22T01:42:02.196Z,48.80
2023-03-22T01:43:02.192Z,46.90
2023-03-22T01:44:02.180Z,48.40
2023-03-22T01:45:02.202Z,47.50
2023-03-22T01:46:02.233Z,47.30
2023-03-22T01:47:02.161Z,47.90
2023-03-22T01:48:02.232Z,48.00
2023-03-22T01:49:02.310Z,47.30
2023-03-22T01:50:02.143Z,47.30
2023-03-22T01:51:02.124Z,48.30
2023-03-22T01:52:02.115Z,47.80
2023-03-22T01:53:02.173Z,48.30
2023-03-22T01:54:02.109Z,48.30
2023-03-22T01:55:02.086Z,47.50
2023-03-22T01:56:02.086Z,46.90
2023-03-22T01:57:02.071Z,47.20
2023-03-22T01:58:02.069Z,46.40
2023-03-22T01:59:02.056Z,48.90
2023-03-22T02:00:02.063Z,47.30
2023-03-22T02:01:02.096Z,47.30
2023-03-22T02:02:02.031Z,47.60
2023-03-22T02:03:02.123Z,46.60
2023-03-22T02:04:02.017Z,48.10
2023-03-22T02:05:02.011Z,49.10
2023-03-22T02:06:02.024Z,47.70
2023-03-22T02:07:01.989Z,48.20
2023-03-22T02:08:01.997Z,47.20
2023-03-22T02:09:01.973Z,47.20
2023-03-22T02:10:01.964Z,48.20
2023-03-22T02:11:01.956Z,47.20
2023-03-22T02:12:01.947Z,46.80
2023-03-22T02:13:01.942Z,47.20
2023-03-22T02:14:01.931Z,45.00
2023-03-22T02:15:01.925Z,46.50
2023-03-22T02:16:01.967Z,47.30
2023-03-22T02:17:01.911Z,47.60
2023-03-22T02:18:01.901Z,48.20
2023-03-22T02:19:01.886Z,48.40
2023-03-22T02:20:01.881Z,48.20
2023-03-22T02:21:02.560Z,48.60
2023-03-22T02:22:01.875Z,48.00
2023-03-22T02:23:01.870Z,48.80
2023-03-22T02:24:01.854Z,49.00
2023-03-22T02:25:01.844Z,47.40
2023-03-22T02:26:01.830Z,48.90
2023-03-22T02:27:01.828Z,48.40
2023-03-22T02:28:01.812Z,48.10
2023-03-22T02:29:01.811Z,48.40
2023-03-22T02:30:01.796Z,48.10
2023-03-22T02:31:01.843Z,49.40
2023-03-22T02:32:01.780Z,50.70
2023-03-22T02:33:01.796Z,49.70
2023-03-22T02:34:01.938Z,50.80
2023-03-22T02:35:01.756Z,50.20
2023-03-22T02:36:01.746Z,51.50
2023-03-22T02:37:01.754Z,51.10
2023-03-22T02:38:01.730Z,51.30
2023-03-22T02:39:01.732Z,51.20
2023-03-22T02:40:01.713Z,52.80
2023-03-22T02:41:01.709Z,51.60
2023-03-22T02:42:01.695Z,53.30
2023-03-22T02:43:01.686Z,52.10
2023-03-22T02:44:01.678Z,52.20
2023-03-22T02:45:01.683Z,50.70
2023-03-22T02:46:01.660Z,51.50
2023-03-22T02:47:01.652Z,52.40
2023-03-22T02:48:01.697Z,52.50
2023-03-22T02:49:01.626Z,54.20
2023-03-22T02:50:01.688Z,52.90
2023-03-22T02:51:01.623Z,52.70
2023-03-22T02:52:01.645Z,53.10
2023-03-22T02:53:01.603Z,52.30
2023-03-22T02:54:01.599Z,51.80
2023-03-22T02:55:01.589Z,52.60
2023-03-22T02:56:01.604Z,50.60
2023-03-22T02:57:01.564Z,50.70
2023-03-22T02:58:01.559Z,49.80
2023-03-22T02:59:01.617Z,49.70
2023-03-22T03:00:01.551Z,51.10
2023-03-22T03:01:01.532Z,49.40
2023-03-22T03:02:01.571Z,49.20
2023-03-22T03:03:01.515Z,48.40
2023-03-22T03:04:01.510Z,51.20
2023-03-22T03:05:01.503Z,53.30
2023-03-22T03:06:01.499Z,55.80
2023-03-22T03:07:01.482Z,54.10
2023-03-22T03:08:01.498Z,54.40
2023-03-22T03:09:01.567Z,52.70
2023-03-22T03:10:01.458Z,53.80
2023-03-22T03:11:01.473Z,54.00
2023-03-22T03:12:01.441Z,54.50
2023-03-22T03:13:01.435Z,53.00
2023-03-22T03:14:01.579Z,52.30
2023-03-22T03:15:01.418Z,51.90
2023-03-22T03:16:01.437Z,52.60
2023-03-22T03:17:01.400Z,51.80
2023-03-22T03:18:01.390Z,51.00
2023-03-22T03:19:01.502Z,51.80
2023-03-22T03:20:01.374Z,51.40
2023-03-22T03:21:01.365Z,51.70
2023-03-22T03:22:01.358Z,53.10
2023-03-22T03:23:01.356Z,54.30
2023-03-22T03:24:01.498Z,54.90
2023-03-22T03:25:01.336Z,56.00
2023-03-22T03:26:01.320Z,54.90
2023-03-22T03:27:01.319Z,54.10
2023-03-22T03:28:01.308Z,54.30
2023-03-22T03:29:01.366Z,55.80
2023-03-22T03:30:01.288Z,53.70
2023-03-22T03:31:01.289Z,52.70
2023-03-22T03:32:01.269Z,53.00
2023-03-22T03:33:01.262Z,52.90
2023-03-22T03:34:01.252Z,52.20
2023-03-22T03:35:01.242Z,52.40
2023-03-22T03:36:01.248Z,50.60
2023-03-22T03:37:01.226Z,50.80
2023-03-22T03:38:01.219Z,49.90
2023-03-22T03:39:01.235Z,48.30
2023-03-22T03:40:01.202Z,47.50
2023-03-22T03:41:01.192Z,46.90
2023-03-22T03:42:01.193Z,44.80
2023-03-22T03:43:01.173Z,44.00
2023-03-22T03:44:01.279Z,44.50
2023-03-22T03:45:01.159Z,42.80
2023-03-22T03:46:01.178Z,42.40
2023-03-22T03:47:01.149Z,42.20
2023-03-22T03:48:01.173Z,41.60
2023-03-22T03:49:01.219Z,40.30
2023-03-22T03:50:01.113Z,38.80
2023-03-22T03:51:01.105Z,37.40
2023-03-22T03:52:01.098Z,35.80
2023-03-22T03:53:01.091Z,36.10
2023-03-22T03:54:01.178Z,34.80
2023-03-22T03:55:01.079Z,34.60
2023-03-22T03:56:01.063Z,35.30
2023-03-22T03:57:03.426Z,34.30
2023-03-22T03:58:01.045Z,33.70
2023-03-22T03:59:01.141Z,34.20
2023-03-22T04:00:01.039Z,34.20
2023-03-22T04:01:01.018Z,32.20
2023-03-22T04:02:01.039Z,32.30
2023-03-22T04:03:01.011Z,31.50
2023-03-22T04:04:01.079Z,30.80
2023-03-22T04:05:00.986Z,31.20
2023-03-22T04:06:00.977Z,31.40
2023-03-22T04:07:00.975Z,31.50
2023-03-22T04:08:00.964Z,32.00
2023-03-22T04:09:01.031Z,31.10
2023-03-22T04:10:00.985Z,31.70
2023-03-22T04:11:00.932Z,32.20
2023-03-22T04:12:00.925Z,30.90
2023-03-22T04:13:00.918Z,30.80
2023-03-22T04:14:00.957Z,29.40
2023-03-22T04:15:00.894Z,29.70
2023-03-22T04:16:00.898Z,29.40
2023-03-22T04:17:00.949Z,29.00
2023-03-22T04:18:00.929Z,27.10
2023-03-22T04:19:00.904Z,26.90
2023-03-22T04:20:00.859Z,26.90
2023-03-22T04:21:00.857Z,27.60
2023-03-22T04:22:00.841Z,28.00
2023-03-22T04:23:00.832Z,28.10
2023-03-22T04:24:00.861Z,28.70
2023-03-22T04:25:00.816Z,27.40
2023-03-22T04:26:00.806Z,26.60
2023-03-22T04:27:00.800Z,26.00
2023-03-22T04:28:00.790Z,24.90
2023-03-22T04:29:00.840Z,24.70
2023-03-22T04:30:00.778Z,24.90
2023-03-22T04:31:00.813Z,24.80
2023-03-22T04:32:00.787Z,25.60
2023-03-22T04:33:00.748Z,25.50
2023-03-22T04:34:00.774Z,25.60
2023-03-22T04:35:00.734Z,25.80
2023-03-22T04:36:02.927Z,26.60
2023-03-22T04:37:00.710Z,26.70
2023-03-22T04:38:00.702Z,26.50
2023-03-22T04:39:00.771Z,28.20
2023-03-22T04:40:00.702Z,28.10
2023-03-22T04:41:00.678Z,27.30
2023-03-22T04:42:00.673Z,28.80
2023-03-22T04:43:00.660Z,28.80
2023-03-22T04:44:00.652Z,29.70
2023-03-22T04:45:00.644Z,29.80
2023-03-22T04:46:00.669Z,29.40
2023-03-22T04:47:00.629Z,29.40
2023-03-22T04:48:00.650Z,28.70
2023-03-22T04:49:00.652Z,28.30
2023-03-22T04:50:00.609Z,27.00
2023-03-22T04:51:00.588Z,27.20
2023-03-22T04:52:00.584Z,27.60
2023-03-22T04:53:00.572Z,27.60
2023-03-22T04:54:00.629Z,27.50
2023-03-22T04:55:00.571Z,27.40
2023-03-22T04:56:00.543Z,27.60
2023-03-22T04:57:00.536Z,27.60
2023-03-22T04:58:00.535Z,27.10
2023-03-22T04:59:00.669Z,26.30
2023-03-22T05:00:00.513Z,26.00
2023-03-22T05:01:00.502Z,26.10
2023-03-22T05:02:00.564Z,25.70
2023-03-22T05:03:00.518Z,25.20
2023-03-22T05:04:00.570Z,25.30
2023-03-22T05:05:00.468Z,25.70
2023-03-22T05:06:00.464Z,25.70
2023-03-22T05:07:00.455Z,26.00
2023-03-22T05:08:00.453Z,24.60
2023-03-22T05:09:00.453Z,25.30
2023-03-22T05:10:00.426Z,25.40
2023-03-22T05:11:00.420Z,26.40
2023-03-22T05:12:00.426Z,26.40
2023-03-22T05:13:00.400Z,25.90
2023-03-22T05:14:00.411Z,26.00
2023-03-22T05:15:00.380Z,26.30
2023-03-22T05:16:00.408Z,26.20
2023-03-22T05:17:00.367Z,26.80
2023-03-22T05:18:00.357Z,26.50
2023-03-22T05:19:00.489Z,26.60
2023-03-22T05:20:00.345Z,27.10
2023-03-22T05:21:00.331Z,28.00
2023-03-22T05:22:00.320Z,26.60
2023-03-22T05:23:00.313Z,26.60
2023-03-22T05:24:00.308Z,25.50
2023-03-22T05:25:00.301Z,26.80
2023-03-22T05:26:00.288Z,27.10
2023-03-22T05:27:00.279Z,27.00
2023-03-22T05:28:00.273Z,26.50
2023-03-22T05:29:00.259Z,26.70
2023-03-22T05:30:00.253Z,27.10
2023-03-22T05:31:00.258Z,26.90
2023-03-22T05:32:00.236Z,27.10
2023-03-22T05:33:00.231Z,27.60
2023-03-22T05:34:00.287Z,27.70
2023-03-22T05:35:00.207Z,26.50
2023-03-22T05:36:00.245Z,26.80
2023-03-22T05:37:00.193Z,25.50
2023-03-22T05:38:00.208Z,26.50
2023-03-22T05:39:00.226Z,26.30
2023-03-22T05:40:00.165Z,27.10
2023-03-22T05:41:00.159Z,27.40
2023-03-22T05:42:00.178Z,27.60
2023-03-22T05:43:00.142Z,26.70
2023-03-22T05:44:00.217Z,26.80
2023-03-22T05:45:00.133Z,26.90
2023-03-22T05:46:00.173Z,26.00
2023-03-22T05:47:00.174Z,25.90
2023-03-22T05:48:00.154Z,25.60
2023-03-22T05:49:00.091Z,25.70
2023-03-22T05:50:00.102Z,25.50
2023-03-22T05:51:00.109Z,24.60
2023-03-22T05:52:00.108Z,25.10
2023-03-22T05:53:00.079Z,24.50
2023-03-22T05:54:00.094Z,24.60
2023-03-22T05:55:00.039Z,25.00
2023-03-22T05:56:00.038Z,25.00
2023-03-22T05:57:00.026Z,24.60
2023-03-22T05:58:00.014Z,24.80
2023-03-22T05:59:00.008Z,25.20
2023-03-22T06:00:00.002Z,23.80
2023-03-22T06:00:59.990Z,23.90
2023-03-22T06:02:00.039Z,24.30
2023-03-22T06:02:59.990Z,23.60
2023-03-22T06:03:59.965Z,23.10
2023-03-22T06:04:59.954Z,23.90
2023-03-22T06:05:59.950Z,23.90
2023-03-22T06:06:59.941Z,23.20
2023-03-22T06:07:59.929Z,23.30
2023-03-22T06:09:14.143Z,24.20
2023-03-22T06:09:59.911Z,24.90
2023-03-22T06:10:59.903Z,23.90
2023-03-22T06:11:59.896Z,23.10
2023-03-22T06:12:59.918Z,23.10
2023-03-22T06:13:59.882Z,22.90
2023-03-22T06:14:59.870Z,23.20
2023-03-22T06:15:59.861Z,23.30
2023-03-22T06:16:59.852Z,23.20
2023-03-22T06:17:59.848Z,22.70
2023-03-22T06:18:59.836Z,22.10
2023-03-22T06:19:59.831Z,22.30
2023-03-22T06:20:59.826Z,21.50
2023-03-22T06:21:59.809Z,21.00
2023-03-22T06:22:59.806Z,20.90
2023-03-22T06:23:59.805Z,21.00
2023-03-22T06:24:59.786Z,20.50
2023-03-22T06:25:59.787Z,21.10
2023-03-22T06:26:59.767Z,21.70
2023-03-22T06:27:59.766Z,20.40
2023-03-22T06:28:59.756Z,21.00
2023-03-22T06:29:59.740Z,21.40
2023-03-22T06:30:59.759Z,20.80
2023-03-22T06:31:59.719Z,21.50
2023-03-22T06:32:59.709Z,20.60
2023-03-22T06:33:59.697Z,20.60
2023-03-22T06:34:59.694Z,21.70
2023-03-22T06:35:59.682Z,21.60
2023-03-22T06:36:59.670Z,20.70
2023-03-22T06:37:59.663Z,21.80
2023-03-22T06:38:59.657Z,20.90
2023-03-22T06:39:59.646Z,20.30
2023-03-22T06:40:59.638Z,19.80
2023-03-22T06:41:59.627Z,19.50
2023-03-22T06:43:03.529Z,20.40
2023-03-22T06:43:59.610Z,20.60
2023-03-22T06:44:59.611Z,19.50
2023-03-22T06:45:59.640Z,20.80
2023-03-22T06:46:59.591Z,21.00
2023-03-22T06:47:59.609Z,20.00
2023-03-22T06:48:59.570Z,19.30
2023-03-22T06:49:59.558Z,18.80
2023-03-22T06:50:59.570Z,19.80
2023-03-22T06:51:59.543Z,19.80
2023-03-22T06:52:59.535Z,19.90
2023-03-22T06:53:59.522Z,19.60
2023-03-22T06:54:59.523Z,19.20
2023-03-22T06:55:59.530Z,19.20
2023-03-22T06:56:59.501Z,18.60
2023-03-22T06:57:59.495Z,19.00
2023-03-22T06:58:59.483Z,19.30
2023-03-22T06:59:59.474Z,19.30
2023-03-22T07:00:59.539Z,19.00
2023-03-22T07:01:59.450Z,19.00
2023-03-22T07:02:59.466Z,19.00
2023-03-22T07:03:59.505Z,18.60
2023-03-22T07:04:59.437Z,18.50
2023-03-22T07:05:59.431Z,18.60
2023-03-22T07:06:59.427Z,18.60
2023-03-22T07:07:59.428Z,18.60
2023-03-22T07:08:59.416Z,18.70
2023-03-22T07:09:59.390Z,18.50
2023-03-22T07:10:59.386Z,18.50
2023-03-22T07:11:59.446Z,18.30
2023-03-22T07:12:59.372Z,17.90
2023-03-22T07:13:59.400Z,18.30
2023-03-22T07:14:59.365Z,17.60
2023-03-22T07:15:59.399Z,17.80
2023-03-22T07:16:59.338Z,17.50
2023-03-22T07:17:59.329Z,17.10
2023-03-22T07:18:59.429Z,17.10
2023-03-22T07:19:59.316Z,16.80
2023-03-22T07:20:59.313Z,17.50
2023-03-22T07:21:59.296Z,16.80
2023-03-22T07:22:59.287Z,16.50
2023-03-22T07:23:59.280Z,16.40
2023-03-22T07:25:01.579Z,16.50
2023-03-22T07:25:59.263Z,17.40
2023-03-22T07:26:59.262Z,16.60
2023-03-22T07:27:59.259Z,16.80
2023-03-22T07:28:59.245Z,15.90
2023-03-22T07:29:59.235Z,16.40
2023-03-22T07:30:59.223Z,16.20
2023-03-22T07:31:59.361Z,15.60
2023-03-22T07:32:59.215Z,15.50
2023-03-22T07:33:59.202Z,15.30
2023-03-22T07:34:59.199Z,16.00
2023-03-22T07:35:59.215Z,14.90
2023-03-22T07:36:59.191Z,15.00
2023-03-22T07:37:59.170Z,15.20
2023-03-22T07:38:59.168Z,15.20
2023-03-22T07:39:59.155Z,14.80
2023-03-22T07:40:59.149Z,15.10
2023-03-22T07:41:59.145Z,15.30
2023-03-22T07:42:59.135Z,15.10
2023-03-22T07:44:15.047Z,14.90
2023-03-22T07:44:59.125Z,15.30
2023-03-22T07:45:59.112Z,15.10
2023-03-22T07:46:59.218Z,15.20
2023-03-22T07:47:59.493Z,15.00
2023-03-22T07:48:59.093Z,14.50
2023-03-22T07:49:59.088Z,14.80
2023-03-22T07:50:59.087Z,14.90
2023-03-22T07:51:59.084Z,14.70
2023-03-22T07:52:59.067Z,13.90
2023-03-22T07:53:59.054Z,13.50
2023-03-22T07:54:59.048Z,14.40
2023-03-22T07:55:59.047Z,14.00
2023-03-22T07:56:59.037Z,13.70
2023-03-22T07:57:59.023Z,13.70
2023-03-22T07:58:59.105Z,13.50
2023-03-22T07:59:59.020Z,13.50
2023-03-22T08:00:59.003Z,13.50
2023-03-22T08:01:59.069Z,13.50
2023-03-22T08:02:59.053Z,13.50
2023-03-22T08:03:58.986Z,13.30
2023-03-22T08:04:58.978Z,13.60
2023-03-22T08:05:58.971Z,13.50
2023-03-22T08:06:58.965Z,13.40
2023-03-22T08:07:58.958Z,12.40
2023-03-22T08:08:58.947Z,12.90
2023-03-22T08:09:59.335Z,12.40
2023-03-22T08:10:59.102Z,12.60
2023-03-22T08:11:58.934Z,12.10
2023-03-22T08:12:58.921Z,12.60
2023-03-22T08:13:58.926Z,12.70
2023-03-22T08:14:58.904Z,11.80
2023-03-22T08:15:58.902Z,12.10
2023-03-22T08:16:58.896Z,12.00
2023-03-22T08:17:58.882Z,12.00
2023-03-22T08:18:58.875Z,12.20
2023-03-22T08:19:58.882Z,11.90
2023-03-22T08:20:58.902Z,11.90
2023-03-22T08:21:58.856Z,11.80
2023-03-22T08:22:58.856Z,11.80
2023-03-22T08:23:58.842Z,11.60
2023-03-22T08:24:58.838Z,11.70
2023-03-22T08:25:58.833Z,12.00
2023-03-22T08:26:58.825Z,11.60
2023-03-22T08:27:58.824Z,11.30
2023-03-22T08:28:58.810Z,11.20
2023-03-22T08:29:58.800Z,11.50
2023-03-22T08:30:58.795Z,11.10
2023-03-22T08:31:58.832Z,10.80
2023-03-22T08:32:58.789Z,10.70
2023-03-22T08:33:58.782Z,10.90
2023-03-22T08:34:58.773Z,11.50
2023-03-22T08:35:58.766Z,11.20
2023-03-22T08:36:58.758Z,11.00
2023-03-22T08:37:58.769Z,11.30
2023-03-22T08:38:58.747Z,11.20
2023-03-22T08:39:58.822Z,10.90
2023-03-22T08:40:58.739Z,10.80
2023-03-22T08:41:58.728Z,10.60
2023-03-22T08:42:58.724Z,11.40
2023-03-22T08:43:58.734Z,11.00
2023-03-22T08:44:58.714Z,10.70
2023-03-22T08:45:58.776Z,11.30
2023-03-22T08:46:58.706Z,10.30
2023-03-22T08:47:58.735Z,10.90
2023-03-22T08:48:58.686Z,11.20
2023-03-22T08:49:58.677Z,11.20
2023-03-22T08:50:58.672Z,10.90
2023-03-22T08:51:58.712Z,11.30
2023-03-22T08:52:58.660Z,10.80
2023-03-22T08:53:58.659Z,11.10
2023-03-22T08:54:58.646Z,10.70
2023-03-22T08:55:58.653Z,10.60
2023-03-22T08:56:58.633Z,11.00
2023-03-22T08:57:58.646Z,10.40
2023-03-22T08:58:58.621Z,10.60
2023-03-22T08:59:58.624Z,10.20
2023-03-22T09:00:58.702Z,10.70
2023-03-22T09:01:58.758Z,10.20
2023-03-22T09:02:58.631Z,10.40
2023-03-22T09:03:58.630Z,10.90
2023-03-22T09:04:58.591Z,10.50
2023-03-22T09:05:58.582Z,10.30
2023-03-22T09:06:58.586Z,10.50
2023-03-22T09:08:05.886Z,10.40
2023-03-22T09:08:58.567Z,10.40
2023-03-22T09:09:58.561Z,10.30
2023-03-22T09:10:58.553Z,9.80
2023-03-22T09:11:58.550Z,10.00
2023-03-22T09:12:58.542Z,9.90
2023-03-22T09:13:58.536Z,9.90
2023-03-22T09:14:58.530Z,9.80
2023-03-22T09:15:58.590Z,9.60
2023-03-22T09:16:58.518Z,9.50
2023-03-22T09:17:58.512Z,9.60
2023-03-22T09:18:58.506Z,10.00
2023-03-22T09:20:11.612Z,9.60
2023-03-22T09:20:58.500Z,9.20
2023-03-22T09:21:58.497Z,9.40
2023-03-22T09:22:58.489Z,9.30
2023-03-22T09:23:58.482Z,9.10
2023-03-22T09:24:58.480Z,9.70
2023-03-22T09:25:58.468Z,9.80
2023-03-22T09:26:58.461Z,9.80
2023-03-22T09:27:58.455Z,9.30
2023-03-22T09:28:58.453Z,9.30
2023-03-22T09:29:58.449Z,8.90
2023-03-22T09:30:58.450Z,9.50
2023-03-22T09:31:58.434Z,8.80
2023-03-22T09:32:58.429Z,9.00
2023-03-22T09:33:58.421Z,8.90
2023-03-22T09:34:58.423Z,8.50
2023-03-22T09:35:58.428Z,8.70
2023-03-22T09:36:58.646Z,8.10
2023-03-22T09:37:58.401Z,8.80
2023-03-22T09:38:58.396Z,8.90
2023-03-22T09:39:58.395Z,8.60
2023-03-22T09:40:58.387Z,8.40
2023-03-22T09:41:58.416Z,8.40
2023-03-22T09:42:58.383Z,8.10
2023-03-22T09:43:58.371Z,8.40
2023-03-22T09:44:58.366Z,8.70
2023-03-22T09:45:58.383Z,8.20
2023-03-22T09:46:58.356Z,8.20
2023-03-22T09:47:58.375Z,8.20
2023-03-22T09:48:58.346Z,8.60
2023-03-22T09:49:58.344Z,8.50
2023-03-22T09:50:58.337Z,8.20
2023-03-22T09:51:58.370Z,8.50
2023-03-22T09:52:58.331Z,8.10
2023-03-22T09:53:58.320Z,8.20
2023-03-22T09:54:58.317Z,8.10
2023-03-22T09:55:58.314Z,8.20
2023-03-22T09:56:58.308Z,8.10
2023-03-22T09:57:58.304Z,7.90
2023-03-22T09:58:58.313Z,7.80
2023-03-22T09:59:58.294Z,7.60
2023-03-22T10:00:58.361Z,8.00
2023-03-22T10:01:58.546Z,8.00
2023-03-22T10:02:58.281Z,7.70
2023-03-22T10:03:58.298Z,8.20
2023-03-22T10:04:58.267Z,7.50
2023-03-22T10:05:58.270Z,7.70
2023-03-22T10:06:58.258Z,7.60
2023-03-22T10:07:58.261Z,7.70
2023-03-22T10:08:58.252Z,7.80
2023-03-22T10:09:58.242Z,7.60
2023-03-22T10:10:58.241Z,7.50
2023-03-22T10:11:58.235Z,7.50
2023-03-22T10:12:58.232Z,8.00
2023-03-22T10:13:58.225Z,8.00
2023-03-22T10:14:58.220Z,7.90
2023-03-22T10:15:58.237Z,7.70
2023-03-22T10:16:58.213Z,7.60
2023-03-22T10:17:58.206Z,7.30
2023-03-22T10:18:58.207Z,7.60
2023-03-22T10:19:58.203Z,7.70
2023-03-22T10:20:58.195Z,7.30
2023-03-22T10:21:58.188Z,7.30
2023-03-22T10:22:58.183Z,6.80
2023-03-22T10:23:58.180Z,7.30
2023-03-22T10:24:58.175Z,7.20
2023-03-22T10:25:58.168Z,7.00
2023-03-22T10:26:58.167Z,6.80
2023-03-22T10:27:58.992Z,6.70
2023-03-22T10:28:58.158Z,7.10
2023-03-22T10:29:58.153Z,6.90
2023-03-22T10:30:58.209Z,7.50
2023-03-22T10:31:58.143Z,7.10
2023-03-22T10:32:58.448Z,7.20
2023-03-22T10:33:58.135Z,7.40
2023-03-22T10:34:58.134Z,7.00
2023-03-22T10:35:58.203Z,6.70
2023-03-22T10:36:58.126Z,6.70
2023-03-22T10:37:58.114Z,6.70
2023-03-22T10:38:58.117Z,6.40
2023-03-22T10:39:58.111Z,6.60
2023-03-22T10:40:58.111Z,6.30
2023-03-22T10:41:58.259Z,5.70
2023-03-22T10:42:58.097Z,6.10
2023-03-22T10:43:58.097Z,5.70
2023-03-22T10:44:58.089Z,5.70
2023-03-22T10:45:58.085Z,5.30
2023-03-22T10:46:58.157Z,5.30
2023-03-22T10:47:58.290Z,5.40
2023-03-22T10:48:58.077Z,5.10
2023-03-22T10:49:58.074Z,5.40
2023-03-22T10:50:58.075Z,5.40
2023-03-22T10:51:58.071Z,5.40
2023-03-22T10:52:58.065Z,5.70
2023-03-22T10:53:58.059Z,5.60
2023-03-22T10:55:02.320Z,6.10
2023-03-22T10:55:58.055Z,5.80
2023-03-22T10:56:58.052Z,5.90
2023-03-22T10:57:58.043Z,6.00
2023-03-22T10:58:58.038Z,5.90
2023-03-22T10:59:58.048Z,6.10
2023-03-22T11:00:58.140Z,5.90
2023-03-22T11:01:58.211Z,5.80
2023-03-22T11:02:58.053Z,5.70
2023-03-22T11:03:58.019Z,5.60
2023-03-22T11:04:58.017Z,5.50
2023-03-22T11:05:58.010Z,5.40
2023-03-22T11:06:58.004Z,5.10
2023-03-22T11:07:58.007Z,4.90
2023-03-22T11:08:57.996Z,4.70
2023-03-22T11:09:57.993Z,4.60
2023-03-22T11:10:58.014Z,4.50
2023-03-22T11:11:58.000Z,4.20
2023-03-22T11:12:58.017Z,4.00
2023-03-22T11:13:57.975Z,3.70
2023-03-22T11:14:57.975Z,3.70
2023-03-22T11:15:57.996Z,3.90
2023-03-22T11:16:57.994Z,4.20
2023-03-22T11:17:57.960Z,4.90
2023-03-22T11:18:57.957Z,4.40
2023-03-22T11:19:58.006Z,4.40
2023-03-22T11:20:57.951Z,4.20
2023-03-22T11:21:57.942Z,4.10
2023-03-22T11:22:57.940Z,3.70
2023-03-22T11:23:57.935Z,3.40
2023-03-22T11:24:57.942Z,3.60
2023-03-22T11:25:57.938Z,3.60
2023-03-22T11:26:57.930Z,3.60
2023-03-22T11:27:57.928Z,3.30
2023-03-22T11:28:57.916Z,3.20
2023-03-22T11:29:57.926Z,3.50
2023-03-22T11:30:57.917Z,3.70
2023-03-22T11:31:57.964Z,3.40
2023-03-22T11:32:57.956Z,3.20
2023-03-22T11:33:57.907Z,3.30
2023-03-22T11:34:57.897Z,3.50
2023-03-22T11:35:57.995Z,3.80
2023-03-22T11:36:57.905Z,3.50
2023-03-22T11:37:57.891Z,3.60
2023-03-22T11:38:57.881Z,3.60
2023-03-22T11:39:57.877Z,3.20
2023-03-22T11:40:57.875Z,3.40
2023-03-22T11:41:57.876Z,3.30
2023-03-22T11:42:57.869Z,3.40
2023-03-22T11:43:57.866Z,3.50
2023-03-22T11:44:57.861Z,3.30
2023-03-22T11:45:57.902Z,3.60
2023-03-22T11:46:57.878Z,3.60
2023-03-22T11:47:57.901Z,3.60
2023-03-22T11:49:00.789Z,3.50
2023-03-22T11:49:57.842Z,3.90
2023-03-22T11:50:57.839Z,3.50
2023-03-22T11:51:57.833Z,3.60
2023-03-22T11:52:57.833Z,3.30
2023-03-22T11:53:57.829Z,3.30
2023-03-22T11:54:57.827Z,3.20
2023-03-22T11:55:57.828Z,3.40
2023-03-22T11:56:57.821Z,3.40
2023-03-22T11:57:57.817Z,3.40
2023-03-22T11:58:57.811Z,3.80
2023-03-22T11:59:57.812Z,3.50
2023-03-22T12:00:57.802Z,3.60
2023-03-22T12:01:57.798Z,3.70
2023-03-22T12:02:57.862Z,3.80
2023-03-22T12:03:57.924Z,3.40
2023-03-22T12:04:57.838Z,3.40
2023-03-22T12:05:57.862Z,3.20
2023-03-22T12:06:57.795Z,2.90
2023-03-22T12:07:57.776Z,2.80
2023-03-22T12:08:57.769Z,3.20
2023-03-22T12:09:59.055Z,3.10
2023-03-22T12:10:57.762Z,3.10
2023-03-22T12:11:57.760Z,2.60
2023-03-22T12:12:57.765Z,2.70
2023-03-22T12:13:57.790Z,2.60
2023-03-22T12:14:57.746Z,2.70
2023-03-22T12:15:57.762Z,2.50
2023-03-22T12:16:57.739Z,2.80
2023-03-22T12:17:57.947Z,2.90
2023-03-22T12:18:57.750Z,2.70
2023-03-22T12:19:57.728Z,3.00
2023-03-22T12:20:57.726Z,2.90
2023-03-22T12:21:57.721Z,3.00
2023-03-22T12:22:57.717Z,3.10
2023-03-22T12:23:57.717Z,2.90
2023-03-22T12:24:57.713Z,3.00
2023-03-22T12:25:57.708Z,2.70
2023-03-22T12:26:57.703Z,2.80
2023-03-22T12:27:57.698Z,3.20
2023-03-22T12:28:57.706Z,2.80
2023-03-22T12:29:57.691Z,2.80
2023-03-22T12:30:57.717Z,2.80
2023-03-22T12:31:57.746Z,2.90
2023-03-22T12:32:57.739Z,2.70
2023-03-22T12:33:57.676Z,2.50
2023-03-22T12:35:05.421Z,2.50
2023-03-22T12:35:57.679Z,2.50
2023-03-22T12:36:57.665Z,2.30
2023-03-22T12:37:57.665Z,2.30
2023-03-22T12:38:57.661Z,2.80
2023-03-22T12:39:57.655Z,2.90
2023-03-22T12:40:57.651Z,3.00
2023-03-22T12:41:57.648Z,3.10
2023-03-22T12:42:59.698Z,3.30
2023-03-22T12:43:57.636Z,3.00
2023-03-22T12:45:04.705Z,2.90
2023-03-22T12:45:57.629Z,2.90
2023-03-22T12:46:57.662Z,2.90
2023-03-22T12:47:57.737Z,2.90
2023-03-22T12:48:57.687Z,2.70
2023-03-22T12:49:57.626Z,2.50
2023-03-22T12:50:57.613Z,2.60
2023-03-22T12:51:57.608Z,2.60
2023-03-22T12:52:57.604Z,2.60
2023-03-22T12:53:57.602Z,2.50
2023-03-22T12:54:57.622Z,2.60
2023-03-22T12:55:57.591Z,2.60
2023-03-22T12:56:57.599Z,2.40
2023-03-22T12:57:57.600Z,2.30
2023-03-22T12:58:57.583Z,2.40
2023-03-22T12:59:57.576Z,2.40